createdAt,value
2018-07-02T00:01:36.302Z,0.93
2018-07-02T00:04:38.635Z,0.80
2018-07-02T00:07:40.735Z,0.80
2018-07-02T00:10:42.849Z,0.70
2018-07-02T00:13:45.005Z,0.87
2018-07-02T00:16:47.153Z,0.63
2018-07-02T00:19:49.190Z,0.87
2018-07-02T00:22:51.355Z,0.77
2018-07-02T00:25:53.485Z,0.70
2018-07-02T00:28:56.267Z,0.70
2018-07-02T00:31:58.382Z,0.70
2018-07-02T00:35:00.728Z,1.00
2018-07-02T00:38:02.827Z,0.77
2018-07-02T00:41:04.943Z,0.70
2018-07-02T00:44:07.109Z,0.97
2018-07-02T00:47:09.441Z,0.70
2018-07-02T00:50:11.632Z,0.73
2018-07-02T00:53:13.743Z,0.70
2018-07-02T00:56:15.903Z,0.80
2018-07-02T00:59:18.074Z,0.73
2018-07-02T01:02:20.331Z,0.70
2018-07-02T01:05:23.429Z,0.90
2018-07-02T01:08:27.110Z,0.80
2018-07-02T01:11:30.664Z,0.77
2018-07-02T01:14:36.010Z,0.80
2018-07-02T01:17:38.289Z,0.80
2018-07-02T01:20:40.316Z,1.00
2018-07-02T01:23:42.753Z,0.80
2018-07-02T01:26:44.962Z,0.60
2018-07-02T01:29:47.463Z,0.70
2018-07-02T01:32:49.420Z,0.70
2018-07-02T01:35:51.518Z,0.73
2018-07-02T01:38:53.682Z,0.70
2018-07-02T01:41:56.314Z,0.73
2018-07-02T01:44:58.295Z,0.80
2018-07-02T01:48:00.399Z,0.90
2018-07-02T01:51:02.466Z,0.87
2018-07-02T01:54:04.538Z,0.70
2018-07-02T01:57:06.591Z,0.80
2018-07-02T02:00:08.651Z,0.50
2018-07-02T02:03:10.764Z,0.70
2018-07-02T02:06:12.712Z,0.70
2018-07-02T02:09:16.786Z,0.80
2018-07-02T02:12:18.894Z,0.60
2018-07-02T02:15:20.940Z,0.73
2018-07-02T02:18:23.031Z,0.60
2018-07-02T02:21:25.095Z,0.67
2018-07-02T02:24:27.826Z,0.60
2018-07-02T02:27:29.950Z,0.70
2018-07-02T02:30:32.016Z,0.70
2018-07-02T02:33:34.258Z,0.57
2018-07-02T02:36:36.379Z,0.60
2018-07-02T02:39:38.436Z,0.80
2018-07-02T02:42:40.388Z,0.50
2018-07-02T02:45:42.451Z,0.60
2018-07-02T02:48:44.520Z,0.90
2018-07-02T02:51:46.600Z,0.70
2018-07-02T02:54:48.643Z,0.80
2018-07-02T02:57:50.741Z,0.70
2018-07-02T03:00:52.811Z,0.60
2018-07-02T03:03:54.900Z,0.70
2018-07-02T03:06:57.946Z,0.60
2018-07-02T03:10:00.061Z,0.60
2018-07-02T03:13:02.179Z,0.83
2018-07-02T03:16:04.672Z,0.73
2018-07-02T03:19:06.901Z,0.70
2018-07-02T03:22:09.002Z,0.87
2018-07-02T03:25:12.123Z,0.70
2018-07-02T03:28:15.228Z,0.70
2018-07-02T03:31:17.391Z,0.60
2018-07-02T03:34:19.473Z,0.80
2018-07-02T03:37:21.423Z,0.70
2018-07-02T03:40:23.493Z,0.97
2018-07-02T03:43:25.538Z,0.63
2018-07-02T03:46:28.853Z,0.70
2018-07-02T03:49:31.923Z,0.53
2018-07-02T03:52:34.007Z,0.80
2018-07-02T03:55:36.091Z,0.70
2018-07-02T03:58:38.153Z,0.60
2018-07-02T04:01:40.325Z,0.90
2018-07-02T04:04:42.432Z,0.80
2018-07-02T04:07:44.499Z,0.80
2018-07-02T04:10:46.663Z,0.50
2018-07-02T04:13:48.709Z,0.67
2018-07-02T04:16:50.673Z,0.60
2018-07-02T04:19:52.736Z,0.77
2018-07-02T04:22:54.800Z,0.80
2018-07-02T04:25:58.142Z,0.70
2018-07-02T04:29:00.178Z,0.67
2018-07-02T04:32:02.241Z,0.90
2018-07-02T04:35:04.534Z,0.70
2018-07-02T04:38:08.756Z,0.60
2018-07-02T04:41:10.858Z,0.70
2018-07-02T04:44:12.893Z,0.70
2018-07-02T04:47:15.995Z,0.87
2018-07-02T04:50:18.054Z,0.80
2018-07-02T04:53:20.120Z,0.70
2018-07-02T04:56:22.210Z,0.70
2018-07-02T04:59:24.268Z,0.80
2018-07-02T05:02:27.411Z,0.70
2018-07-02T05:05:29.499Z,0.70
2018-07-02T05:08:31.591Z,0.80
2018-07-02T05:11:34.884Z,0.80
2018-07-02T05:14:37.331Z,0.70
2018-07-02T05:17:39.352Z,0.80
2018-07-02T05:20:41.513Z,1.00
2018-07-02T05:23:44.597Z,1.10
2018-07-02T05:26:46.600Z,1.30
2018-07-02T05:29:55.199Z,1.20
2018-07-02T05:32:58.733Z,1.00
2018-07-02T05:36:00.731Z,1.07
2018-07-02T05:39:04.710Z,2.17
2018-07-02T05:42:06.859Z,1.10
2018-07-02T05:45:08.924Z,0.87
2018-07-02T05:48:11.193Z,1.50
2018-07-02T05:51:13.263Z,0.87
2018-07-02T05:54:15.332Z,0.90
2018-07-02T05:57:17.691Z,0.90
2018-07-02T06:00:19.701Z,1.40
2018-07-02T06:03:21.747Z,1.10
2018-07-02T06:06:23.871Z,0.80
2018-07-02T06:09:26.085Z,0.70
2018-07-02T06:12:29.418Z,0.80
2018-07-02T06:15:31.361Z,0.90
2018-07-02T06:18:33.448Z,0.90
2018-07-02T06:21:36.503Z,0.90
2018-07-02T06:24:38.712Z,0.80
2018-07-02T06:27:40.735Z,0.90
2018-07-02T06:30:42.886Z,0.93
2018-07-02T06:33:45.112Z,0.80
2018-07-02T06:36:47.207Z,0.87
2018-07-02T06:39:49.249Z,0.83
2018-07-02T06:42:52.495Z,0.80
2018-07-02T06:45:54.694Z,0.87
2018-07-02T06:48:56.856Z,0.80
2018-07-02T06:52:00.379Z,1.10
2018-07-02T06:55:02.482Z,0.83
2018-07-02T06:58:04.571Z,0.83
2018-07-02T07:01:06.704Z,0.77
2018-07-02T07:04:08.796Z,0.70
2018-07-02T07:07:10.825Z,0.70
2018-07-02T07:10:13.900Z,1.00
2018-07-02T07:13:16.089Z,0.80
2018-07-02T07:16:18.160Z,0.67
2018-07-02T07:19:20.432Z,0.97
2018-07-02T07:22:22.471Z,0.60
2018-07-02T07:25:24.571Z,0.70
2018-07-02T07:28:26.806Z,0.70
2018-07-02T07:31:28.986Z,0.90
2018-07-02T07:34:31.164Z,1.00
2018-07-02T07:37:33.285Z,1.00
2018-07-02T07:40:36.359Z,0.90
2018-07-02T07:43:38.490Z,0.87
2018-07-02T07:46:40.543Z,0.90
2018-07-02T07:49:42.744Z,0.90
2018-07-02T07:52:44.735Z,1.13
2018-07-02T07:55:46.909Z,1.00
2018-07-02T07:58:48.973Z,1.40
2018-07-02T08:01:51.073Z,0.93
2018-07-02T08:04:53.225Z,0.97
2018-07-02T08:07:55.337Z,0.80
2018-07-02T08:10:57.355Z,1.00
2018-07-02T08:14:00.661Z,0.90
2018-07-02T08:17:03.129Z,1.00
2018-07-02T08:20:05.515Z,0.90
2018-07-02T08:23:07.627Z,0.77
2018-07-02T08:26:09.766Z,0.80
2018-07-02T08:29:11.834Z,0.87
2018-07-02T08:32:13.784Z,0.90
2018-07-02T08:35:15.864Z,0.90
2018-07-02T08:38:17.931Z,0.70
2018-07-02T08:41:20.144Z,1.00
2018-07-02T08:44:22.192Z,0.80
2018-07-02T08:47:24.244Z,0.90
2018-07-02T08:50:26.397Z,1.00
2018-07-02T08:53:29.084Z,0.90
2018-07-02T08:56:31.248Z,1.10
2018-07-02T08:59:33.336Z,0.80
2018-07-02T09:02:35.277Z,0.80
2018-07-02T09:05:37.661Z,0.90
2018-07-02T09:08:39.755Z,1.07
2018-07-02T09:11:42.986Z,1.00
2018-07-02T09:14:45.173Z,0.80
2018-07-02T09:17:47.153Z,0.90
2018-07-02T09:20:49.243Z,0.93
2018-07-02T09:23:51.397Z,0.77
2018-07-02T09:26:53.463Z,0.90
2018-07-02T09:29:55.559Z,1.10
2018-07-02T09:32:57.571Z,1.20
2018-07-02T09:36:01.013Z,0.90
2018-07-02T09:39:05.691Z,1.13
2018-07-02T09:42:07.829Z,1.10
2018-07-02T09:45:11.183Z,0.90
2018-07-02T09:48:13.228Z,0.90
2018-07-02T09:51:15.264Z,1.03
2018-07-02T09:54:17.436Z,1.00
2018-07-02T09:57:19.501Z,1.00
2018-07-02T10:00:21.589Z,0.80
2018-07-02T10:03:23.725Z,0.90
2018-07-02T10:06:25.741Z,0.90
2018-07-02T10:09:27.880Z,1.00
2018-07-02T10:12:30.463Z,0.83
2018-07-02T10:15:32.659Z,0.93
2018-07-02T10:18:34.699Z,0.87
2018-07-02T10:21:36.900Z,0.83
2018-07-02T10:24:39.047Z,1.00
2018-07-02T10:27:41.240Z,0.80
2018-07-02T10:30:43.263Z,0.90
2018-07-02T10:33:45.396Z,0.80
2018-07-02T10:36:47.406Z,0.63
2018-07-02T10:39:49.537Z,0.87
2018-07-02T10:42:51.560Z,0.83
2018-07-02T10:45:53.699Z,0.77
2018-07-02T10:48:55.852Z,1.00
2018-07-02T10:51:57.899Z,0.80
2018-07-02T10:55:00.631Z,0.80
2018-07-02T10:58:02.971Z,0.93
2018-07-02T11:01:05.213Z,0.73
2018-07-02T11:04:07.423Z,1.13
2018-07-02T11:07:09.425Z,1.00
2018-07-02T11:10:11.508Z,0.83
2018-07-02T11:13:13.451Z,0.90
2018-07-02T11:16:15.547Z,1.00
2018-07-02T11:19:17.720Z,0.87
2018-07-02T11:22:19.692Z,0.90
2018-07-02T11:25:21.827Z,0.93
2018-07-02T11:28:23.903Z,1.00
2018-07-02T11:31:26.076Z,0.90
2018-07-02T11:34:28.145Z,0.80
2018-07-02T11:37:30.395Z,0.80
2018-07-02T11:40:32.651Z,0.83
2018-07-02T11:43:34.678Z,1.03
2018-07-02T11:46:36.988Z,0.93
2018-07-02T11:49:39.197Z,1.10
2018-07-02T11:52:41.202Z,1.00
2018-07-02T11:55:43.249Z,1.00
2018-07-02T11:58:45.351Z,0.90
2018-07-02T12:01:47.403Z,0.80
2018-07-02T12:04:49.478Z,0.90
2018-07-02T12:07:51.657Z,0.90
2018-07-02T12:10:53.696Z,0.90
2018-07-02T12:13:55.694Z,0.90
2018-07-02T12:16:59.531Z,0.80
2018-07-02T12:20:01.832Z,0.80
2018-07-02T12:23:04.864Z,1.00
2018-07-02T12:26:06.956Z,0.77
2018-07-02T12:29:09.086Z,0.80
2018-07-02T12:32:11.243Z,0.80
2018-07-02T12:35:13.660Z,0.80
2018-07-02T12:38:15.774Z,0.63
2018-07-02T12:41:18.446Z,0.90
2018-07-02T12:44:20.382Z,1.10
2018-07-02T12:47:22.756Z,0.83
2018-07-02T12:50:24.975Z,0.80
2018-07-02T12:53:27.114Z,0.90
2018-07-02T12:56:29.164Z,1.00
2018-07-02T12:59:31.937Z,0.90
2018-07-02T13:02:34.038Z,0.80
2018-07-02T13:05:36.256Z,0.80
2018-07-02T13:08:38.352Z,1.00
2018-07-02T13:11:40.556Z,1.00
2018-07-02T13:14:42.595Z,1.00
2018-07-02T13:17:44.772Z,1.00
2018-07-02T13:20:46.819Z,1.60
2018-07-02T13:23:48.932Z,1.50
2018-07-02T13:26:51.312Z,1.20
2018-07-02T13:29:53.341Z,1.13
2018-07-02T13:32:55.397Z,1.10
2018-07-02T13:35:57.379Z,1.00
2018-07-02T13:38:59.456Z,0.87
2018-07-02T13:42:02.237Z,0.80
2018-07-02T13:45:04.562Z,0.90
2018-07-02T13:48:06.718Z,0.63
2018-07-02T13:51:08.744Z,0.70
2018-07-02T13:54:10.819Z,0.80
2018-07-02T13:57:12.917Z,0.90
2018-07-02T14:00:14.986Z,1.00
2018-07-02T14:03:17.148Z,0.70
2018-07-02T14:06:19.447Z,0.80
2018-07-02T14:09:21.558Z,0.90
2018-07-02T14:12:23.642Z,0.70
2018-07-02T14:15:26.739Z,0.73
2018-07-02T14:18:32.294Z,0.73
2018-07-02T14:21:35.543Z,0.60
2018-07-02T14:24:37.659Z,0.80
2018-07-02T14:27:39.735Z,0.73
2018-07-02T14:30:42.875Z,0.80
2018-07-02T14:33:44.887Z,0.90
2018-07-02T14:36:46.953Z,0.90
2018-07-02T14:39:49.028Z,0.90
2018-07-02T14:42:51.045Z,1.10
2018-07-02T14:45:53.192Z,0.60
2018-07-02T14:48:55.171Z,0.83
2018-07-02T14:51:57.186Z,0.90
2018-07-02T14:54:59.268Z,0.80
2018-07-02T14:58:02.407Z,0.90
2018-07-02T15:01:04.371Z,0.90
2018-07-02T15:04:06.481Z,0.80
2018-07-02T15:07:08.832Z,0.80
2018-07-02T15:10:10.980Z,0.70
2018-07-02T15:13:13.120Z,1.00
2018-07-02T15:16:15.183Z,0.70
2018-07-02T15:19:17.347Z,0.70
2018-07-02T15:22:20.535Z,0.73
2018-07-02T15:25:23.701Z,0.73
2018-07-02T15:28:25.711Z,0.80
2018-07-02T15:31:27.692Z,0.87
2018-07-02T15:34:29.773Z,0.80
2018-07-02T15:37:32.228Z,0.70
2018-07-02T15:40:34.420Z,0.60
2018-07-02T15:43:36.879Z,0.80
2018-07-02T15:46:39.132Z,0.80
2018-07-02T15:49:41.343Z,0.80
2018-07-02T15:52:43.352Z,0.80
2018-07-02T15:55:45.362Z,0.77
2018-07-02T15:58:47.503Z,0.80
2018-07-02T16:01:49.708Z,0.80
2018-07-02T16:04:51.888Z,0.77
2018-07-02T16:07:54.156Z,0.70
2018-07-02T16:10:56.093Z,0.60
2018-07-02T16:13:58.176Z,0.80
2018-07-02T16:17:01.406Z,0.77
2018-07-02T16:20:03.436Z,0.90
2018-07-02T16:23:05.846Z,0.90
2018-07-02T16:26:07.831Z,0.67
2018-07-02T16:29:09.858Z,0.70
2018-07-02T16:32:12.041Z,0.70
2018-07-02T16:35:14.107Z,0.80
2018-07-02T16:38:16.223Z,0.93
2018-07-02T16:41:18.328Z,0.90
2018-07-02T16:44:20.469Z,0.70
2018-07-02T16:47:22.468Z,0.80
2018-07-02T16:50:24.634Z,0.70
2018-07-02T16:53:26.732Z,0.80
2018-07-02T16:56:28.791Z,0.73
2018-07-02T16:59:31.876Z,0.87
2018-07-02T17:02:33.935Z,1.00
2018-07-02T17:05:36.820Z,0.70
2018-07-02T17:08:38.999Z,0.70
2018-07-02T17:11:41.088Z,0.90
2018-07-02T17:14:43.061Z,0.90
2018-07-02T17:17:46.159Z,1.00
2018-07-02T17:20:50.256Z,0.80
2018-07-02T17:23:52.223Z,0.90
2018-07-02T17:26:54.297Z,0.77
2018-07-02T17:29:56.460Z,0.70
2018-07-02T17:32:58.495Z,0.70
2018-07-02T17:36:01.852Z,1.00
2018-07-02T17:39:06.855Z,0.90
2018-07-02T17:42:08.845Z,0.90
2018-07-02T17:45:12.971Z,0.93
2018-07-02T17:48:15.135Z,1.00
2018-07-02T17:51:17.208Z,1.10
2018-07-02T17:54:19.357Z,1.20
2018-07-02T17:57:21.451Z,0.97
2018-07-02T18:00:23.551Z,0.70
2018-07-02T18:03:25.671Z,0.97
2018-07-02T18:06:27.859Z,1.00
2018-07-02T18:09:29.940Z,0.80
2018-07-02T18:12:34.084Z,0.70
2018-07-02T18:15:36.235Z,0.90
2018-07-02T18:18:38.297Z,0.70
2018-07-02T18:21:40.463Z,0.67
2018-07-02T18:24:42.528Z,0.70
2018-07-02T18:27:44.634Z,0.80
2018-07-02T18:30:46.876Z,0.90
2018-07-02T18:33:49.028Z,0.80
2018-07-02T18:36:51.236Z,0.90
2018-07-02T18:39:53.380Z,0.90
2018-07-02T18:42:55.753Z,0.90
2018-07-02T18:45:57.817Z,0.90
2018-07-02T18:49:03.450Z,0.70
2018-07-02T18:52:05.664Z,1.00
2018-07-02T18:55:07.888Z,0.80
2018-07-02T18:58:09.963Z,0.93
2018-07-02T19:01:11.947Z,0.90
2018-07-02T19:04:14.106Z,1.07
2018-07-02T19:07:16.183Z,0.83
2018-07-02T19:10:18.224Z,1.03
2018-07-02T19:13:20.467Z,0.70
2018-07-02T19:16:22.660Z,1.10
2018-07-02T19:19:24.696Z,1.50
2018-07-02T19:22:26.647Z,1.10
2018-07-02T19:25:28.751Z,1.20
2018-07-02T19:28:31.552Z,1.40
2018-07-02T19:31:33.563Z,1.10
2018-07-02T19:34:35.659Z,1.20
2018-07-02T19:37:37.917Z,2.87
2018-07-02T19:40:39.995Z,1.03
2018-07-02T19:43:42.083Z,1.10
2018-07-02T19:46:44.231Z,1.30
2018-07-02T19:49:46.942Z,1.10
2018-07-02T19:52:49.133Z,1.30
2018-07-02T19:55:51.248Z,1.00
2018-07-02T19:58:53.505Z,1.30
2018-07-02T20:01:55.631Z,1.13
2018-07-02T20:04:57.776Z,1.03
2018-07-02T20:07:59.837Z,1.20
2018-07-02T20:11:02.018Z,1.23
2018-07-02T20:14:04.078Z,0.80
2018-07-02T20:17:06.091Z,1.10
2018-07-02T20:20:09.463Z,2.40
2018-07-02T20:23:11.589Z,3.60
2018-07-02T20:26:13.776Z,2.40
2018-07-02T20:29:16.854Z,2.90
2018-07-02T20:32:19.311Z,3.10
2018-07-02T20:35:21.518Z,2.10
2018-07-02T20:38:23.721Z,1.80
2018-07-02T20:41:25.749Z,1.87
2018-07-02T20:44:27.840Z,1.63
2018-07-02T20:47:30.172Z,1.37
2018-07-02T20:50:32.296Z,1.30
2018-07-02T20:53:34.317Z,1.10
2018-07-02T20:56:36.412Z,1.03
2018-07-02T20:59:39.651Z,1.00
2018-07-02T21:02:41.677Z,2.07
2018-07-02T21:05:43.832Z,1.30
2018-07-02T21:08:46.856Z,1.17
2018-07-02T21:11:48.891Z,1.23
2018-07-02T21:14:50.979Z,0.90
2018-07-02T21:17:53.128Z,0.80
2018-07-02T21:20:55.233Z,0.90
2018-07-02T21:23:57.370Z,0.80
2018-07-02T21:26:59.346Z,0.80
2018-07-02T21:30:01.488Z,0.87
2018-07-02T21:33:03.612Z,0.80
2018-07-02T21:36:05.768Z,0.83
2018-07-02T21:39:09.931Z,0.70
2018-07-02T21:42:12.076Z,0.90
2018-07-02T21:45:15.115Z,1.20
2018-07-02T21:48:18.519Z,1.10
2018-07-02T21:51:20.607Z,1.00
2018-07-02T21:54:22.684Z,0.80
2018-07-02T21:57:24.741Z,0.90
2018-07-02T22:00:26.852Z,0.80
2018-07-02T22:03:29.087Z,1.00
2018-07-02T22:06:31.188Z,1.20
2018-07-02T22:09:33.380Z,0.87
2018-07-02T22:12:35.572Z,1.20
2018-07-02T22:15:37.670Z,1.00
2018-07-02T22:18:39.664Z,1.20
2018-07-02T22:21:41.814Z,1.30
2018-07-02T22:24:43.871Z,0.97
2018-07-02T22:27:45.955Z,0.80
2018-07-02T22:30:49.129Z,1.10
2018-07-02T22:33:51.094Z,1.20
2018-07-02T22:36:53.191Z,1.00
2018-07-02T22:39:55.226Z,1.00
2018-07-02T22:42:58.336Z,1.00
2018-07-02T22:46:00.444Z,0.90
2018-07-02T22:49:06.996Z,0.80
2018-07-02T22:52:09.151Z,1.13
2018-07-02T22:55:11.417Z,1.03
2018-07-02T22:58:13.566Z,1.10
2018-07-02T23:01:15.811Z,1.20
2018-07-02T23:04:19.124Z,1.50
2018-07-02T23:07:21.316Z,1.33
2018-07-02T23:10:23.315Z,1.30
2018-07-02T23:13:25.634Z,1.40
2018-07-02T23:16:27.751Z,1.40
2018-07-02T23:19:29.822Z,1.50
2018-07-02T23:22:41.767Z,1.50
2018-07-02T23:25:43.902Z,1.20
2018-07-02T23:28:45.961Z,1.27
2018-07-02T23:31:49.172Z,1.30
2018-07-02T23:34:51.137Z,1.37
2018-07-02T23:37:53.320Z,1.37
2018-07-02T23:40:55.648Z,1.33
2018-07-02T23:43:57.716Z,1.20
2018-07-02T23:46:59.813Z,1.40
2018-07-02T23:50:01.938Z,1.30
2018-07-02T23:53:04.056Z,1.47
2018-07-02T23:56:06.306Z,1.33
2018-07-02T23:59:08.418Z,1.30
